Lexington Weather

Lexington, Massachusetts, USA

69°F
8/18/2019 4:53am 
  • Lexington Conditions: Overcast
  • Temperature: 69.1°F / 20.6°CWarmer 0.4°F than last hour.
  • Dew Point: 67.8°FIncreased 0.3°Fsince last hour.
  • Relative Humidity: 96
  • Wind: Calm, 10-min avg: Calm, gust: None
  • Barometer: 29.94 in Steady
  • Visibility: 10 miles
  • Rain Today: 0.00 in
  •   

Nearby Reports - Official Weather Stations - Current Conditions

Data from the National Weather Service

KBED - Bedford, MA


Distance from station: WNW 4mi, 6km

Updated Sun Aug 18, 2019 4:37am EDT

Overcast

Overcast

Wind from calm

Wind:

Calm

Temperature: 72°F (22°C)

Dew Point: 66°F (19°C)

Humidity: 83%

Barometer: 29.97 in (1014.9 hPa)

Clouds: Overcast

Visibility: 10 miles (16 km)

Cloud details: Overcast 400 ft


2019/08/18 08:37 KBED 180837Z AUTO 00000KT 10SM OVC004 22/19 A2997 RMK AO2 T02220194 $

KBOS - Boston, MA


Distance from station: ESE 12mi, 20km

Updated Sun Aug 18, 2019 4:21am EDT

Mist, Overcast

Mist, Overcast

Wind from calm

Wind:

Calm

Temperature: 70°F (21°C)

Dew Point: 66°F (19°C)

Humidity: 88%

Barometer: 29.98 in (1015.2 hPa)

Summary: Mist

Clouds: Overcast

Visibility: 5 miles (8 km)

Cloud details: Overcast 400 ft


2019/08/18 08:21 KBOS 180821Z 00000KT 5SM BR OVC004 21/19 A2998 RMK AO2 T02110189

KMQE - East Milton, MA


Distance from station: SSE 17mi, 27km

Updated Sun Aug 18, 2019 3:56am EDT

Wind from SSW

Wind:

SSW 7 mph, 11 km/h

Temperature: 70°F (21°C)

Dew Point: 70°F (21°C)

Humidity: 100%

Barometer: 29.99 in (1015.6 hPa)


2019/08/18 07:56 KMQE 180756Z AUTO 21006KT 21/21 A2999 RMK AO1 SLP162 T02110211

KOWD - Norwood, MA


Distance from station: SSE 18mi, 29km

Updated Sun Aug 18, 2019 4:41am EDT

Haze, Overcast

Haze, Overcast

Wind from calm

Wind:

Calm

Temperature: 75°F (24°C)

Dew Point: 70°F (21°C)

Humidity: 83%

Barometer: 29.98 in (1015.2 hPa)

Summary: Haze

Clouds: Overcast

Visibility: 5 miles (8 km)

Cloud details: Mostly cloudy 500 ft
Overcast 1000 ft


2019/08/18 08:41 KOWD 180841Z AUTO 00000KT 5SM HZ BKN005 OVC010 24/21 A2998 RMK AO2 CIG 003V007 T02390211 $

KBVY - Beverly, MA


Distance from station: ENE 19mi, 31km

Updated Sat Aug 17, 2019 8:53pm EDT (NOT Current)

Mostly cloudy

Mostly cloudy

Wind from E

Wind:

E 5 mph, 7 km/h

Temperature: 68°F (20°C)

Dew Point: 66°F (19°C)

Humidity: 94%

Barometer: 30.01 in (1016.3 hPa)

Clouds: Mostly cloudy

Visibility: 10 miles (16 km)

Cloud details: Partly cloudy 500 ft
Mostly cloudy 4800 ft


2019/08/18 00:53 KBVY 180053Z 10004KT 10SM SCT005 BKN048 20/19 A3001

KLWM - Lawrence, MA


Distance from station: NNE 20mi, 32km

Updated Sun Aug 18, 2019 4:07am EDT

Overcast

Overcast

Wind from calm

Wind:

Calm

Temperature: 68°F (20°C)

Dew Point: 66°F (19°C)

Humidity: 94%

Barometer: 30.00 in (1015.9 hPa)

Clouds: Overcast

Visibility: 9 miles (14 km)

Cloud details: Partly cloudy 400 ft
Overcast 1200 ft


2019/08/18 08:07 KLWM 180807Z AUTO 00000KT 9SM SCT004 OVC012 20/19 A3000 RMK AO2 T02000189 $

KFIT - Fitchburg, MA


Distance from station: WNW 27mi, 44km

Updated Sun Aug 18, 2019 3:52am EDT

Clear

Clear

Wind from N

Wind:

N 5 mph, 7 km/h

Temperature: 66°F (19°C)

Dew Point: 64°F (18°C)

Humidity: 94%

Barometer: 29.99 in (1015.6 hPa)

Clouds: Clear

Visibility: 10 miles (16 km)


2019/08/18 07:52 KFIT 180752Z AUTO 36004KT 10SM CLR 19/18 A2999 RMK AO2 SLP156 T01940183

KASH - Nashua/Boire Fld, NH


Distance from station: NNW 28mi, 44km

Updated Sun Aug 18, 2019 4:31am EDT

Few Clouds

Few Clouds

Wind from calm

Wind:

Calm

Temperature: 64°F (18°C)

Dew Point: 64°F (18°C)

Humidity: 100%

Barometer: 29.99 in (1015.6 hPa)

Clouds: Few Clouds

Visibility: 7 miles (11 km)

Cloud details: Few Clouds 200 ft


2019/08/18 08:31 KASH 180831Z AUTO 00000KT 7SM FEW002 18/18 A2999 RMK AO2

KORH - Worcester, MA


Distance from station: WSW 34mi, 55km

Updated Sun Aug 18, 2019 4:37am EDT

Mist, Overcast

Mist, Overcast

Wind from SW

Wind:

SW 8 mph, 13 km/h

Temperature: 66°F (19°C)

Dew Point: 66°F (19°C)

Humidity: 100%

Barometer: 30.03 in (1016.9 hPa)

Summary: Mist

Clouds: Overcast

Visibility: ¾ mile (1 km)

Cloud details: Overcast 200 ft


2019/08/18 08:37 KORH 180837Z AUTO 23007KT 3/4SM R11/3000V5500FT BR VV002 19/19 A3003 RMK AO2 T01890189

KMHT - Manchester, NH


Distance from station: NNW 35mi, 57km

Updated Sun Aug 18, 2019 3:53am EDT

Fog, Overcast

Fog, Overcast

Wind from calm

Wind:

Calm

Temperature: 66°F (19°C)

Dew Point: 66°F (19°C)

Humidity: 100%

Barometer: 29.97 in (1014.9 hPa)

Summary: Fog

Clouds: Overcast

Visibility: ¼ mile (0 km)

Cloud details: Overcast 200 ft


2019/08/18 07:53 KMHT 180753Z 00000KT 1/4SM R35/1000V1400FT FG VV002 19/19 A2997 RMK AO2 SFC VIS 1/2 SLP158 T01940194

KGHG - Marshfield, MA


Distance from station: SE 38mi, 60km

Updated Sun Aug 18, 2019 4:35am EDT

Fog, Overcast

Fog, Overcast

Wind from calm

Wind:

Calm

Temperature: 72°F (22°C)

Dew Point: 72°F (22°C)

Humidity: 100%

Barometer: 29.98 in (1015.2 hPa)

Summary: Fog

Clouds: Overcast

Visibility: ½ mile (1 km)

Cloud details: Overcast 100 ft


2019/08/18 08:35 KGHG 180835Z AUTO 00000KT 1/2SM FG OVC001 22/22 A2998 RMK AO2

KSFZ - Pawtucket, RI


Distance from station: SSW 39mi, 62km

Updated Sun Aug 18, 2019 4:41am EDT

Overcast

Overcast

Wind from calm

Wind:

Calm

Temperature: 72°F (22°C)

Dew Point: 70°F (21°C)

Humidity: 94%

Barometer: 30.00 in (1015.9 hPa)

Clouds: Overcast

Visibility: 10 miles (16 km)

Cloud details: Overcast 800 ft


2019/08/18 08:41 KSFZ 180841Z AUTO 00000KT 10SM OVC008 22/21 A3000 RMK AO2

KTAN - Taunton, MA


Distance from station: SSE 40mi, 65km

Updated Sun Aug 18, 2019 4:41am EDT

Mist, Overcast

Mist, Overcast

Wind from W

Wind:

W 5 mph, 7 km/h

Temperature: 73°F (23°C)

Dew Point: 72°F (22°C)

Humidity: 94%

Barometer: 29.98 in (1015.2 hPa)

Summary: Mist

Clouds: Overcast

Visibility: 2 miles (3 km)

Cloud details: Overcast 200 ft


2019/08/18 08:41 KTAN 180841Z AUTO 26004KT 2SM BR OVC002 23/22 A2998 RMK AO2 T02280217

KPYM - Plymouth, MA


Distance from station: SE 44mi, 72km

Updated Sun Aug 18, 2019 3:52am EDT

Fog, Overcast

Fog, Overcast

Wind from calm

Wind:

Calm

Temperature: 70°F (21°C)

Dew Point: 70°F (21°C)

Humidity: 100%

Barometer: 29.99 in (1015.6 hPa)

Summary: Fog

Clouds: Overcast

Visibility: ½ mile (1 km)

Cloud details: Overcast 300 ft


2019/08/18 07:52 KPYM 180752Z AUTO 00000KT 1/2SM FG VV003 21/21 A2999 RMK AO2 SLP154 T02110211 $

KAFN - Jaffrey, NH


Distance from station: WNW 46mi, 74km

Updated Sun Aug 18, 2019 4:11am EDT

Mist, Overcast

Mist, Overcast

Wind from SSW

Wind:

SSW 5 mph, 7 km/h

Temperature: 64°F (18°C)

Dew Point: 63°F (17°C)

Humidity: 94%

Barometer: 30.02 in (1016.6 hPa)

Summary: Mist

Clouds: Overcast

Visibility: 1½ miles (2 km)

Cloud details: Overcast 200 ft


2019/08/18 08:11 KAFN 180811Z AUTO 20004KT 1 1/2SM BR OVC002 18/17 A3002 RMK AO2 T01830172 $

KPSM - Portsmouth/Pease, NH


Distance from station: NNE 48mi, 78km

Updated Sun Aug 18, 2019 4:24am EDT

Mist, Overcast

Mist, Overcast

Wind from calm

Wind:

Calm

Temperature: 66°F (19°C)

Dew Point: 66°F (19°C)

Humidity: 100%

Barometer: 29.97 in (1014.9 hPa)

Summary: Mist

Clouds: Overcast

Visibility: 4 miles (6 km)

Cloud details: Mostly cloudy 500 ft
Overcast 10000 ft


2019/08/18 08:24 KPSM 180824Z 00000KT 4SM BR BKN005 OVC100 19/19 A2997 RMK AO2A SLP151

KPVD - Providence/Green, RI


Distance from station: S 51mi, 82km

Updated Sun Aug 18, 2019 3:59am EDT

Mist, Overcast

Mist, Overcast

Wind from calm

Wind:

Calm

Temperature: 72°F (22°C)

Dew Point: 72°F (22°C)

Humidity: 100%

Barometer: 29.99 in (1015.6 hPa)

Summary: Mist

Clouds: Overcast

Visibility: 5 miles (8 km)

Cloud details: Partly cloudy 200 ft
Overcast 700 ft


2019/08/18 07:59 KPVD 180759Z 00000KT 5SM BR SCT002 OVC007 22/22 A2999 RMK AO2 T02170217

KCON - Concord, NH


Distance from station: NNW 54mi, 87km

Updated Sun Aug 18, 2019 4:33am EDT

Mist, Overcast

Mist, Overcast

Wind from calm

Wind:

Calm

Temperature: 64°F (18°C)

Dew Point: 64°F (18°C)

Humidity: 100%

Barometer: 29.99 in (1015.6 hPa)

Summary: Mist

Clouds: Overcast

Visibility: 3 miles (5 km)

Cloud details: Overcast 500 ft


2019/08/18 08:33 KCON 180833Z AUTO 00000KT 3SM BR OVC005 18/18 A2999 RMK AO2 T01830178 $

KEWB - New Bedford, MA


Distance from station: SSE 54mi, 87km

Updated Sun Aug 18, 2019 3:53am EDT

Fog, Overcast

Fog, Overcast

Wind from calm

Wind:

Calm

Temperature: 72°F (22°C)

Dew Point: 70°F (21°C)

Humidity: 94%

Barometer: 29.98 in (1015.2 hPa)

Summary: Fog

Clouds: Overcast

Visibility: ½ mile (1 km)

Cloud details: Overcast 200 ft


2019/08/18 07:53 KEWB 180753Z AUTO 00000KT 1/2SM R05/2000V2400FT FG VV002 22/21 A2998 RMK AO2 RAB21E35 SLP153 P0000 T02220211

KMWN - Mount Washington, NH


Distance from station: N 126mi, 203km

Updated Sun Aug 18, 2019 3:50am EDT

Fog, Overcast

Fog, Overcast

Wind from W

Wind:

W 37 mph, 59 km/h

Temperature: 50°F (10°C)

Wind Chill: 41°F (5°C)

Dew Point: 50°F (10°C)

Humidity: 100%

Summary: Fog

Clouds: Overcast

Visibility: ⅛ mile (0 km)

Cloud details: Overcast 200 ft


2019/08/18 07:50 KMWN 180750Z 28032KT 1/8SM FG VV002 10/10 RMK MOON DMLY VSBL